createdAt,value
2023-05-18T00:01:41.767Z,15.77
2023-05-18T00:04:10.415Z,15.76
2023-05-18T00:06:38.302Z,15.73
2023-05-18T00:09:06.629Z,15.67
2023-05-18T00:11:40.072Z,15.60
2023-05-18T00:14:08.600Z,15.58
2023-05-18T00:16:36.975Z,15.52
2023-05-18T00:19:05.440Z,15.50
2023-05-18T00:21:33.850Z,15.42
2023-05-18T00:24:02.677Z,15.39
2023-05-18T00:26:31.639Z,15.41
2023-05-18T00:29:02.469Z,15.37
2023-05-18T00:31:30.414Z,15.35
2023-05-18T00:33:58.588Z,15.36
2023-05-18T00:36:26.803Z,15.35
2023-05-18T00:38:54.529Z,15.34
2023-05-18T00:41:23.212Z,15.35
2023-05-18T00:43:51.270Z,15.35
2023-05-18T00:46:19.269Z,15.33
2023-05-18T00:48:48.301Z,15.30
2023-05-18T00:51:18.195Z,15.21
2023-05-18T00:53:47.723Z,15.20
2023-05-18T00:56:19.547Z,15.16
2023-05-18T00:58:50.359Z,15.12
2023-05-18T01:01:20.590Z,15.05
2023-05-18T01:03:48.398Z,15.05
2023-05-18T01:06:19.808Z,15.04
2023-05-18T01:08:48.960Z,15.05
2023-05-18T01:11:59.172Z,15.11
2023-05-18T01:14:45.800Z,15.09
2023-05-18T01:18:01.863Z,15.00
2023-05-18T01:20:39.267Z,14.93
2023-05-18T01:23:30.083Z,14.95
2023-05-18T01:26:07.210Z,14.93
2023-05-18T01:28:42.832Z,14.91
2023-05-18T01:31:21.186Z,14.92
2023-05-18T01:33:49.619Z,14.97
2023-05-18T01:36:19.016Z,15.01
2023-05-18T01:38:48.749Z,15.04
2023-05-18T01:41:23.449Z,15.05
2023-05-18T01:44:04.509Z,15.08
2023-05-18T01:46:43.810Z,15.06
2023-05-18T01:49:46.043Z,15.10
2023-05-18T01:52:48.714Z,15.21
2023-05-18T01:55:18.362Z,15.27
2023-05-18T01:57:48.131Z,15.32
2023-05-18T02:00:18.896Z,15.32
2023-05-18T02:02:49.048Z,15.36
2023-05-18T02:05:19.303Z,15.39
2023-05-18T02:07:48.668Z,15.44
2023-05-18T02:10:16.963Z,15.43
2023-05-18T02:12:49.292Z,15.49
2023-05-18T02:15:17.333Z,15.52
2023-05-18T02:17:45.515Z,15.57
2023-05-18T02:20:14.495Z,15.57
2023-05-18T02:22:42.666Z,15.64
2023-05-18T02:25:10.882Z,15.71
2023-05-18T02:27:39.192Z,15.76
2023-05-18T02:30:10.201Z,15.78
2023-05-18T02:32:43.113Z,15.85
2023-05-18T02:35:14.226Z,15.87
2023-05-18T02:37:45.572Z,15.94
2023-05-18T02:40:16.338Z,15.96
2023-05-18T02:42:44.972Z,16.05
2023-05-18T02:45:15.420Z,16.09
2023-05-18T02:47:45.172Z,16.13
2023-05-18T02:50:16.664Z,16.23
2023-05-18T02:52:49.459Z,16.26
2023-05-18T02:55:17.893Z,16.32
2023-05-18T02:57:58.165Z,16.37
2023-05-18T03:00:43.199Z,16.43
2023-05-18T03:03:16.146Z,16.50
2023-05-18T03:05:46.143Z,16.58
2023-05-18T03:08:14.792Z,16.64
2023-05-18T03:10:42.784Z,16.70
2023-05-18T03:13:11.120Z,16.74
2023-05-18T03:15:39.819Z,16.80
2023-05-18T03:18:07.587Z,16.87
2023-05-18T03:20:38.043Z,16.92
2023-05-18T03:23:06.206Z,16.99
2023-05-18T03:25:37.493Z,17.03
2023-05-18T03:28:06.685Z,17.08
2023-05-18T03:30:35.503Z,17.18
2023-05-18T03:33:04.770Z,17.22
2023-05-18T03:35:34.322Z,17.27
2023-05-18T03:38:05.456Z,17.37
2023-05-18T03:40:33.943Z,17.41
2023-05-18T03:43:01.984Z,17.46
2023-05-18T03:45:31.020Z,17.52
2023-05-18T03:47:59.244Z,17.58
2023-05-18T03:50:28.756Z,17.66
2023-05-18T03:52:56.951Z,17.73
2023-05-18T03:55:26.717Z,17.82
2023-05-18T03:57:57.090Z,17.90
2023-05-18T04:00:25.451Z,17.97
2023-05-18T04:02:53.534Z,18.05
2023-05-18T04:05:26.132Z,18.11
2023-05-18T04:07:53.882Z,18.15
2023-05-18T04:10:22.208Z,18.22
2023-05-18T04:12:50.247Z,18.29
2023-05-18T04:15:18.093Z,18.38
2023-05-18T04:17:46.290Z,18.45
2023-05-18T04:20:15.093Z,18.49
2023-05-18T04:22:49.418Z,18.57
2023-05-18T04:25:18.878Z,18.68
2023-05-18T04:27:50.496Z,18.75
2023-05-18T04:30:22.292Z,18.82
2023-05-18T04:32:52.047Z,18.89
2023-05-18T04:35:20.169Z,18.99
2023-05-18T04:37:48.227Z,19.04
2023-05-18T04:40:18.827Z,19.14
2023-05-18T04:42:49.099Z,19.21
2023-05-18T04:45:35.407Z,19.31
2023-05-18T04:48:03.414Z,19.36
2023-05-18T04:50:31.160Z,19.43
2023-05-18T04:53:02.679Z,19.54
2023-05-18T04:55:31.660Z,19.61
2023-05-18T04:58:05.292Z,19.69
2023-05-18T05:00:33.247Z,19.79
2023-05-18T05:03:00.933Z,19.92
2023-05-18T05:05:30.179Z,20.00
2023-05-18T05:07:59.084Z,20.13
2023-05-18T05:10:31.058Z,20.24
2023-05-18T05:12:58.833Z,20.33
2023-05-18T05:15:26.705Z,20.42
2023-05-18T05:17:56.132Z,20.51
2023-05-18T05:20:26.551Z,20.57
2023-05-18T05:22:55.229Z,20.69
2023-05-18T05:25:26.185Z,20.80
2023-05-18T05:27:54.209Z,20.87
2023-05-18T05:30:22.698Z,20.93
2023-05-18T05:32:50.788Z,21.05
2023-05-18T05:35:19.139Z,21.17
2023-05-18T05:37:53.350Z,21.28
2023-05-18T05:40:21.930Z,21.36
2023-05-18T05:42:52.287Z,21.45
2023-05-18T05:45:22.195Z,21.57
2023-05-18T05:47:55.315Z,21.63
2023-05-18T05:50:29.526Z,21.74
2023-05-18T05:53:01.218Z,21.83
2023-05-18T05:55:34.177Z,21.90
2023-05-18T05:58:04.849Z,21.97
2023-05-18T06:00:33.379Z,22.06
2023-05-18T06:03:03.979Z,22.17
2023-05-18T06:05:41.910Z,22.25
2023-05-18T06:08:11.986Z,22.31
2023-05-18T06:10:41.767Z,22.38
2023-05-18T06:13:14.448Z,22.45
2023-05-18T06:15:48.178Z,22.54
2023-05-18T06:18:16.052Z,22.60
2023-05-18T06:20:45.483Z,22.68
2023-05-18T06:23:15.274Z,22.78
2023-05-18T06:25:56.130Z,22.84
2023-05-18T06:28:44.146Z,22.90
2023-05-18T06:31:32.775Z,22.97
2023-05-18T06:34:10.143Z,23.07
2023-05-18T06:36:39.373Z,23.09
2023-05-18T06:39:07.543Z,23.12
2023-05-18T06:41:36.192Z,23.18
2023-05-18T06:44:04.096Z,23.25
2023-05-18T06:46:38.969Z,23.29
2023-05-18T06:49:13.780Z,23.35
2023-05-18T06:51:43.985Z,23.44
2023-05-18T06:54:12.288Z,23.47
2023-05-18T06:56:40.847Z,23.54
2023-05-18T06:59:08.981Z,23.56
2023-05-18T07:01:37.210Z,23.59
2023-05-18T07:04:06.618Z,23.62
2023-05-18T07:06:38.650Z,23.59
2023-05-18T07:09:08.218Z,23.44
2023-05-18T07:11:36.272Z,23.40
2023-05-18T07:14:04.127Z,23.45
2023-05-18T07:16:32.204Z,23.51
2023-05-18T07:19:00.444Z,23.55
2023-05-18T07:21:28.463Z,23.57
2023-05-18T07:23:56.449Z,23.65
2023-05-18T07:26:24.163Z,23.71
2023-05-18T07:28:52.028Z,23.71
2023-05-18T07:31:21.966Z,23.77
2023-05-18T07:33:50.875Z,23.82
2023-05-18T07:36:18.728Z,23.86
2023-05-18T07:38:46.874Z,23.95
2023-05-18T07:41:14.613Z,24.02
2023-05-18T07:43:42.649Z,24.08
2023-05-18T07:46:10.434Z,24.14
2023-05-18T07:48:40.574Z,24.26
2023-05-18T07:51:10.149Z,24.31
2023-05-18T07:53:38.340Z,24.38
2023-05-18T07:56:07.667Z,24.42
2023-05-18T07:58:36.804Z,24.46
2023-05-18T08:01:04.685Z,24.49
2023-05-18T08:03:32.632Z,24.52
2023-05-18T08:06:00.925Z,24.63
2023-05-18T08:08:29.058Z,24.71
2023-05-18T08:10:58.350Z,24.82
2023-05-18T08:13:27.053Z,24.97
2023-05-18T08:16:09.891Z,25.01
2023-05-18T08:18:47.534Z,25.02
2023-05-18T08:21:15.756Z,25.05
2023-05-18T08:23:43.727Z,25.11
2023-05-18T08:26:13.930Z,25.19
2023-05-18T08:28:42.639Z,25.31
2023-05-18T08:31:12.799Z,25.41
2023-05-18T08:33:40.624Z,25.53
2023-05-18T08:36:09.131Z,25.60
2023-05-18T08:38:37.182Z,25.68
2023-05-18T08:41:26.796Z,25.81
2023-05-18T08:44:37.612Z,25.88
2023-05-18T08:47:10.032Z,25.97
2023-05-18T08:49:38.548Z,26.02
2023-05-18T08:52:09.129Z,26.04
2023-05-18T08:54:38.278Z,26.08
2023-05-18T08:57:12.182Z,26.02
2023-05-18T08:59:42.817Z,26.03
2023-05-18T09:02:15.522Z,25.96
2023-05-18T09:04:45.100Z,25.99
2023-05-18T09:07:14.082Z,26.10
2023-05-18T09:09:42.386Z,26.19
2023-05-18T09:12:11.741Z,26.25
2023-05-18T09:14:42.929Z,26.35
2023-05-18T09:17:11.230Z,26.39
2023-05-18T09:19:38.880Z,26.43
2023-05-18T09:22:07.373Z,26.53
2023-05-18T09:24:35.588Z,26.69
2023-05-18T09:27:04.721Z,26.81
2023-05-18T09:29:33.705Z,26.95
2023-05-18T09:32:08.870Z,27.07
2023-05-18T09:34:40.455Z,27.29
2023-05-18T09:37:09.472Z,27.30
2023-05-18T09:39:37.111Z,27.31
2023-05-18T09:42:05.007Z,27.38
2023-05-18T09:44:34.904Z,27.47
2023-05-18T09:47:04.417Z,27.53
2023-05-18T09:49:32.492Z,27.59
2023-05-18T09:52:00.524Z,27.61
2023-05-18T09:54:28.406Z,27.84
2023-05-18T09:57:09.413Z,28.00
2023-05-18T09:59:38.207Z,28.01
2023-05-18T10:02:07.889Z,28.08
2023-05-18T10:04:37.377Z,28.22
2023-05-18T10:07:13.428Z,28.38
2023-05-18T10:09:43.021Z,28.42
2023-05-18T10:12:15.901Z,28.38
2023-05-18T10:14:45.452Z,28.27
2023-05-18T10:17:16.215Z,28.16
2023-05-18T10:19:46.743Z,28.08
2023-05-18T10:22:18.237Z,28.20
2023-05-18T10:24:51.676Z,28.31
2023-05-18T10:27:27.024Z,28.36
2023-05-18T10:29:58.690Z,28.23
2023-05-18T10:32:29.779Z,28.22
2023-05-18T10:34:58.039Z,28.14
2023-05-18T10:37:30.825Z,28.07
2023-05-18T10:40:02.066Z,28.22
2023-05-18T10:42:31.700Z,28.34
2023-05-18T10:45:05.094Z,28.38
2023-05-18T10:47:36.478Z,28.29
2023-05-18T10:50:05.576Z,28.14
2023-05-18T10:52:37.642Z,28.03
2023-05-18T10:55:06.992Z,28.11
2023-05-18T10:57:54.119Z,28.25
2023-05-18T11:00:34.501Z,28.42
2023-05-18T11:03:03.923Z,28.61
2023-05-18T11:05:31.848Z,28.78
2023-05-18T11:08:05.851Z,28.85
2023-05-18T11:10:42.646Z,28.90
2023-05-18T11:13:14.022Z,29.02
2023-05-18T11:15:54.446Z,29.12
2023-05-18T11:18:36.117Z,29.18
2023-05-18T11:21:09.489Z,29.18
2023-05-18T11:23:39.039Z,29.18
2023-05-18T11:26:16.464Z,29.37
2023-05-18T11:28:44.626Z,29.58
2023-05-18T11:31:18.333Z,29.51
2023-05-18T11:33:46.853Z,29.54
2023-05-18T11:36:15.552Z,29.43
2023-05-18T11:39:05.104Z,29.39
2023-05-18T11:41:34.499Z,29.56
2023-05-18T11:44:08.142Z,29.78
2023-05-18T11:46:37.427Z,29.82
2023-05-18T11:49:07.820Z,29.86
2023-05-18T11:51:58.584Z,29.92
2023-05-18T11:54:30.227Z,29.98
2023-05-18T11:56:59.257Z,29.88
2023-05-18T11:59:44.458Z,29.51
2023-05-18T12:02:15.124Z,29.24
2023-05-18T12:04:54.454Z,28.91
2023-05-18T12:07:23.753Z,28.98
2023-05-18T12:09:52.071Z,29.13
2023-05-18T12:12:24.218Z,29.29
2023-05-18T12:15:00.367Z,29.54
2023-05-18T12:17:41.857Z,29.75
2023-05-18T12:20:14.775Z,29.87
2023-05-18T12:22:47.666Z,29.90
2023-05-18T12:25:16.137Z,30.11
2023-05-18T12:27:46.045Z,30.13
2023-05-18T12:30:21.518Z,30.14
2023-05-18T12:32:56.648Z,30.24
2023-05-18T12:35:34.056Z,30.06
2023-05-18T12:38:02.596Z,29.63
2023-05-18T12:40:45.027Z,29.98
2023-05-18T12:43:16.570Z,31.98
2023-05-18T12:45:46.169Z,34.15
2023-05-18T12:48:15.116Z,36.10
2023-05-18T12:50:53.090Z,37.48
2023-05-18T12:53:21.043Z,38.31
2023-05-18T12:56:01.903Z,38.31
2023-05-18T12:58:29.499Z,38.26
2023-05-18T13:00:57.076Z,38.48
2023-05-18T13:03:27.397Z,37.74
2023-05-18T13:06:08.676Z,36.50
2023-05-18T13:08:37.119Z,34.87
2023-05-18T13:11:14.153Z,33.99
2023-05-18T13:14:03.668Z,33.90
2023-05-18T13:16:34.020Z,35.46
2023-05-18T13:19:07.651Z,35.34
2023-05-18T13:21:36.167Z,34.14
2023-05-18T13:24:05.049Z,33.55
2023-05-18T13:26:33.195Z,34.55
2023-05-18T13:29:00.817Z,34.42
2023-05-18T13:31:32.104Z,33.27
2023-05-18T13:33:59.869Z,31.97
2023-05-18T13:36:30.093Z,31.07
2023-05-18T13:38:57.847Z,30.72
